ENTCENSH

Guest
Details From ENTC - Tromso Langnes
To ENSH - Svolvaer Helle
Flight Number -
Tags generated
Created
Modified
Stats Distance 126 nm / 233 km
Max Altitude 9,800 ft / 2,987 m
Waypoints 3
Social Downloads 1
Likes 0
Share VATSIM

Download

Looking for another format? Having issues loading an existing format? Contact us
Advertisement - Login to hide

Notes

Basic altitude profile: - Ascent Rate: 2500ft/min - Ascent Speed: 250kts - Cruise Altitude: 35000ft - Cruise Speed: 420kts - Descent Rate: 1500ft/min - Descent Speed: 250kts Options: - Use NATs: yes - Use PACOTS: yes - Use low airways: yes - Use high airways: yes

Route

ENTC ATKID ENSH

ID Type Via Altitude Latitude Longitude Leg Dist Tot Dist Heading (true) Name
O ENTC APT - 0 ft / 0 m 69.68287˚ 18.91936˚ - 0 nm - Tromso Langnes
ATKID FIX - 9,800 ft / 2,987 m 68.80609˚ 16.07715˚ 80 nm 80 nm 230° / 228° -
O ENSH APT - 0 ft / 0 m 68.24260˚ 14.66856˚ 45 nm 126 nm 223° / 222° Svolvaer Helle

Altitude Profile

Advertisement - Login to hide

ENTC

Details ICAO ENTC (TOS)
Name Tromso Langnes
Region Norway
Timezone Europe/Oslo (UTC+2.0)
Stats Elevation 31 ft / 9 m (AMSL)
Location 69.682866° 18.919363°
Runways 1
Magnetic Variation 8.916° E

METAR

ENTC 201520Z 21004KT 9999 DZ FEW015 OVC036 09/07 Q0997 NOSIG RMK WIND 2600FT 30005KT

Decode

TAF

TAF ENTC 201100Z 2012/2112 19008KT 9999 -RA FEW006 BKN020 TEMPO 2012/2112 4000 RADZ BKN008

Decode

Departure Runways

ID Width Length Bearing (true) Bearing (mag) Surface Threshold Offset Overrun Length
01 141 ft / 43 m 7,740 ft / 2,359 m 12.19° 3.27° Asphalt 0 ft / 0 m 289 ft / 88 m
19 141 ft / 43 m 7,740 ft / 2,359 m 192.21° 183.29° Asphalt 1,227 ft / 374 m 482 ft / 147 m

ENSH

Details ICAO ENSH (SVJ)
Name Svolvaer Helle
Region Norway
Timezone Unknown (UTC+0.0)
Stats Elevation 27 ft / 8 m (AMSL)
Location 68.242598° 14.668558°
Runways 1
Magnetic Variation 6.158° E

METAR

ENSH 201450Z 19010KT 9999 VCSH SCT008 BKN014 10/08 Q0997 RMK WIND 150FT 18013KT

Decode

TAF

Not found

Destination Runways

ID Width Length Bearing (true) Bearing (mag) Surface Threshold Offset Overrun Length
01 98 ft / 30 m 3,097 ft / 944 m 192.17° 186.01° Asphalt 230 ft / 70 m 0 ft / 0 m
19 98 ft / 30 m 3,097 ft / 944 m 12.17° 6.01° Asphalt 230 ft / 70 m 0 ft / 0 m

Popular Alternatives